createdAt,value
2022-09-29T00:01:16.762Z,7.20
2022-09-29T00:03:45.031Z,7.20
2022-09-29T00:06:16.694Z,7.10
2022-09-29T00:08:45.294Z,7.10
2022-09-29T00:11:17.474Z,7.10
2022-09-29T00:13:48.221Z,7.10
2022-09-29T00:16:17.115Z,7.00
2022-09-29T00:18:45.459Z,7.00
2022-09-29T00:21:17.452Z,6.90
2022-09-29T00:23:45.712Z,6.90
2022-09-29T00:26:17.518Z,6.80
2022-09-29T00:28:52.735Z,6.80
2022-09-29T00:31:21.915Z,6.80
2022-09-29T00:33:51.119Z,6.80
2022-09-29T00:36:21.732Z,6.80
2022-09-29T00:38:52.754Z,6.80
2022-09-29T00:41:24.264Z,6.80
2022-09-29T00:43:58.735Z,6.80
2022-09-29T00:46:41.156Z,6.70
2022-09-29T00:49:16.657Z,6.70
2022-09-29T00:51:52.902Z,6.70
2022-09-29T00:54:21.937Z,6.70
2022-09-29T00:56:52.247Z,6.70
2022-09-29T00:59:31.895Z,6.60
2022-09-29T01:02:00.722Z,6.60
2022-09-29T01:04:29.375Z,6.60
2022-09-29T01:06:59.704Z,6.60
2022-09-29T01:09:32.625Z,6.60
2022-09-29T01:12:01.701Z,6.60
2022-09-29T01:14:33.611Z,6.50
2022-09-29T01:17:02.247Z,6.50
2022-09-29T01:19:42.140Z,6.50
2022-09-29T01:22:23.769Z,6.50
2022-09-29T01:25:00.056Z,6.40
2022-09-29T01:28:28.621Z,6.40
2022-09-29T01:31:16.099Z,6.40
2022-09-29T01:33:50.232Z,6.40
2022-09-29T01:36:31.100Z,6.30
2022-09-29T01:39:12.201Z,6.20
2022-09-29T01:41:46.212Z,6.20
2022-09-29T01:44:24.080Z,6.20
2022-09-29T01:46:57.725Z,6.10
2022-09-29T01:49:32.979Z,6.10
2022-09-29T01:52:05.166Z,6.00
2022-09-29T01:54:43.659Z,6.00
2022-09-29T01:57:16.890Z,5.90
2022-09-29T01:59:50.902Z,5.90
2022-09-29T02:02:26.520Z,5.90
2022-09-29T02:04:58.533Z,5.90
2022-09-29T02:07:34.251Z,5.90
2022-09-29T02:10:08.608Z,5.70
2022-09-29T02:12:39.247Z,5.80
2022-09-29T02:15:11.237Z,5.70
2022-09-29T02:17:44.663Z,5.70
2022-09-29T02:20:14.311Z,5.60
2022-09-29T02:22:43.844Z,5.70
2022-09-29T02:25:15.251Z,5.70
2022-09-29T02:27:43.730Z,5.70
2022-09-29T02:30:13.739Z,5.80
2022-09-29T02:32:43.379Z,5.70
2022-09-29T02:35:15.099Z,5.80
2022-09-29T02:37:55.705Z,5.80
2022-09-29T02:40:38.972Z,5.80
2022-09-29T02:43:57.365Z,5.80
2022-09-29T02:46:44.145Z,5.80
2022-09-29T02:49:32.223Z,5.80
2022-09-29T02:52:03.935Z,5.70
2022-09-29T02:54:52.966Z,5.60
2022-09-29T02:57:28.622Z,5.50
2022-09-29T03:00:08.602Z,5.40
2022-09-29T03:02:38.138Z,5.40
2022-09-29T03:05:11.659Z,5.40
2022-09-29T03:07:40.722Z,5.40
2022-09-29T03:10:11.659Z,5.40
2022-09-29T03:12:40.140Z,5.40
2022-09-29T03:15:12.513Z,5.30
2022-09-29T03:17:41.369Z,5.30
2022-09-29T03:20:11.624Z,5.30
2022-09-29T03:22:39.882Z,5.30
2022-09-29T03:25:09.553Z,5.30
2022-09-29T03:27:38.501Z,5.30
2022-09-29T03:30:08.824Z,5.30
2022-09-29T03:32:37.136Z,5.30
2022-09-29T03:35:06.948Z,5.30
2022-09-29T03:37:36.666Z,5.30
2022-09-29T03:40:06.409Z,5.40
2022-09-29T03:42:34.834Z,5.40
2022-09-29T03:45:03.136Z,5.40
2022-09-29T03:47:31.804Z,5.40
2022-09-29T03:50:00.097Z,5.40
2022-09-29T03:52:28.343Z,5.40
2022-09-29T03:54:57.984Z,5.30
2022-09-29T03:57:26.557Z,5.30
2022-09-29T03:59:55.497Z,5.30
2022-09-29T04:02:23.826Z,5.30
2022-09-29T04:04:52.121Z,5.30
2022-09-29T04:07:20.399Z,5.20
2022-09-29T04:09:48.641Z,5.20
2022-09-29T04:12:18.298Z,5.20
2022-09-29T04:14:46.577Z,5.20
2022-09-29T04:17:14.834Z,5.10
2022-09-29T04:19:43.317Z,5.20
2022-09-29T04:22:12.075Z,5.20
2022-09-29T04:24:40.320Z,5.20
2022-09-29T04:27:08.592Z,5.20
2022-09-29T04:29:38.186Z,5.20
2022-09-29T04:32:07.312Z,5.30
2022-09-29T04:34:35.532Z,5.20
2022-09-29T04:37:04.101Z,5.20
2022-09-29T04:39:32.679Z,5.20
2022-09-29T04:42:00.961Z,5.30
2022-09-29T04:44:29.240Z,5.20
2022-09-29T04:46:58.880Z,5.30
2022-09-29T04:49:27.181Z,5.30
2022-09-29T04:51:55.463Z,5.30
2022-09-29T04:54:23.770Z,5.30
2022-09-29T04:56:52.416Z,5.30
2022-09-29T04:59:20.794Z,5.20
2022-09-29T05:01:50.733Z,5.20
2022-09-29T05:04:20.419Z,5.20
2022-09-29T05:06:48.859Z,5.20
2022-09-29T05:09:17.342Z,5.30
2022-09-29T05:11:45.566Z,5.30
2022-09-29T05:14:14.670Z,5.30
2022-09-29T05:16:43.042Z,5.20
2022-09-29T05:19:12.021Z,5.30
2022-09-29T05:21:41.635Z,5.20
2022-09-29T05:24:10.153Z,5.30
2022-09-29T05:26:38.558Z,5.30
2022-09-29T05:29:06.836Z,5.20
2022-09-29T05:31:35.423Z,5.30
2022-09-29T05:34:03.754Z,5.30
2022-09-29T05:36:32.008Z,5.40
2022-09-29T05:39:01.618Z,5.30
2022-09-29T05:41:29.936Z,5.40
2022-09-29T05:44:00.546Z,5.30
2022-09-29T05:46:29.688Z,5.40
2022-09-29T05:48:58.391Z,5.40
2022-09-29T05:51:27.981Z,5.30
2022-09-29T05:53:56.432Z,5.30
2022-09-29T05:56:31.026Z,5.40
2022-09-29T05:59:01.440Z,5.40
2022-09-29T06:01:30.118Z,5.40
2022-09-29T06:03:59.200Z,5.40
2022-09-29T06:06:30.032Z,5.40
2022-09-29T06:09:00.369Z,5.50
2022-09-29T06:11:32.431Z,5.50
2022-09-29T06:14:01.202Z,5.60
2022-09-29T06:16:32.702Z,5.70
2022-09-29T06:19:02.603Z,5.80
2022-09-29T06:21:32.045Z,5.90
2022-09-29T06:24:00.428Z,6.10
2022-09-29T06:26:31.259Z,6.30
2022-09-29T06:28:59.621Z,6.40
2022-09-29T06:31:30.579Z,6.50
2022-09-29T06:34:01.936Z,6.70
2022-09-29T06:36:50.728Z,6.90
2022-09-29T06:39:19.221Z,7.10
2022-09-29T06:41:53.420Z,7.20
2022-09-29T06:44:23.381Z,7.20
2022-09-29T06:46:52.210Z,7.30
2022-09-29T06:49:21.425Z,7.40
2022-09-29T06:51:49.974Z,7.40
2022-09-29T06:54:20.650Z,7.20
2022-09-29T06:56:51.293Z,7.30
2022-09-29T06:59:19.916Z,7.20
2022-09-29T07:01:50.566Z,7.20
2022-09-29T07:04:21.472Z,7.30
2022-09-29T07:06:50.663Z,7.30
2022-09-29T07:09:19.716Z,7.30
2022-09-29T07:11:52.653Z,7.40
2022-09-29T07:14:23.745Z,7.50
2022-09-29T07:16:51.889Z,7.60
2022-09-29T07:19:20.823Z,7.60
2022-09-29T07:21:49.966Z,7.70
2022-09-29T07:24:18.562Z,7.80
2022-09-29T07:26:46.879Z,7.90
2022-09-29T07:29:16.630Z,8.00
2022-09-29T07:31:52.366Z,8.10
2022-09-29T07:34:21.717Z,8.20
2022-09-29T07:36:50.220Z,8.30
2022-09-29T07:39:18.757Z,8.40
2022-09-29T07:41:47.000Z,8.50
2022-09-29T07:44:16.776Z,8.70
2022-09-29T07:46:45.094Z,8.70
2022-09-29T07:49:13.888Z,8.90
2022-09-29T07:51:42.111Z,9.10
2022-09-29T07:54:10.403Z,9.20
2022-09-29T07:56:39.043Z,9.30
2022-09-29T07:59:07.357Z,9.50
2022-09-29T08:01:36.925Z,9.50
2022-09-29T08:04:05.193Z,9.60
2022-09-29T08:06:33.720Z,9.70
2022-09-29T08:09:05.128Z,9.80
2022-09-29T08:11:34.940Z,10.00
2022-09-29T08:14:03.303Z,10.10
2022-09-29T08:16:32.560Z,10.20
2022-09-29T08:19:03.310Z,10.40
2022-09-29T08:21:36.418Z,10.50
2022-09-29T08:24:05.947Z,10.70
2022-09-29T08:26:42.582Z,10.80
2022-09-29T08:29:16.858Z,10.90
2022-09-29T08:31:46.263Z,11.00
2022-09-29T08:34:16.488Z,11.20
2022-09-29T08:36:44.970Z,11.20
2022-09-29T08:39:15.484Z,11.30
2022-09-29T08:41:56.577Z,11.50
2022-09-29T08:44:38.712Z,11.70
2022-09-29T08:47:19.304Z,11.80
2022-09-29T08:49:54.410Z,11.80
2022-09-29T08:52:27.890Z,11.80
2022-09-29T08:55:12.079Z,11.90
2022-09-29T08:57:45.911Z,12.00
2022-09-29T09:00:16.799Z,12.00
2022-09-29T09:03:17.010Z,12.10
2022-09-29T09:06:07.054Z,12.20
2022-09-29T09:08:56.141Z,12.40
2022-09-29T09:11:44.681Z,12.50
2022-09-29T09:14:28.454Z,12.60
2022-09-29T09:17:07.762Z,12.60
2022-09-29T09:20:03.013Z,12.70
2022-09-29T09:22:45.048Z,12.80
2022-09-29T09:25:25.026Z,12.90
2022-09-29T09:28:08.029Z,13.10
2022-09-29T09:30:45.584Z,13.20
2022-09-29T09:33:31.689Z,13.30
2022-09-29T09:36:07.535Z,13.40
2022-09-29T09:38:50.283Z,13.40
2022-09-29T09:41:24.188Z,13.40
2022-09-29T09:43:58.874Z,13.50
2022-09-29T09:46:34.748Z,13.60
2022-09-29T09:49:14.874Z,13.80
2022-09-29T09:51:51.282Z,14.00
2022-09-29T09:54:31.439Z,13.90
2022-09-29T09:57:30.181Z,14.00
2022-09-29T10:00:10.664Z,14.20
2022-09-29T10:02:45.954Z,14.20
2022-09-29T10:05:17.404Z,14.20
2022-09-29T10:07:47.074Z,14.20
2022-09-29T10:10:20.584Z,14.30
2022-09-29T10:12:51.044Z,14.30
2022-09-29T10:15:26.634Z,14.30
2022-09-29T10:18:05.924Z,14.30
2022-09-29T10:20:37.629Z,14.50
2022-09-29T10:23:32.027Z,14.40
2022-09-29T10:26:08.258Z,14.70
2022-09-29T10:28:45.779Z,14.80
2022-09-29T10:31:21.893Z,15.00
2022-09-29T10:33:58.236Z,15.10
2022-09-29T10:36:30.316Z,15.10
2022-09-29T10:39:02.300Z,15.20
2022-09-29T10:41:54.145Z,15.30
2022-09-29T10:44:22.990Z,15.20
2022-09-29T10:47:15.283Z,15.20
2022-09-29T10:49:44.002Z,15.20
2022-09-29T10:52:25.624Z,15.20
2022-09-29T10:54:59.236Z,15.20
2022-09-29T10:57:33.660Z,15.30
2022-09-29T11:00:03.235Z,15.50
2022-09-29T11:02:36.187Z,15.60
2022-09-29T11:05:16.351Z,15.80
2022-09-29T11:07:46.933Z,15.90
2022-09-29T11:10:29.997Z,16.20
2022-09-29T11:13:01.055Z,16.30
2022-09-29T11:15:40.340Z,16.20
2022-09-29T11:18:21.757Z,16.10
2022-09-29T11:20:58.557Z,16.10
2022-09-29T11:23:36.374Z,16.00
2022-09-29T11:26:26.664Z,15.60
2022-09-29T11:29:21.727Z,15.20
2022-09-29T11:32:23.236Z,15.30
2022-09-29T11:35:20.129Z,15.40
2022-09-29T11:38:19.602Z,15.80
2022-09-29T11:41:04.646Z,15.90
2022-09-29T11:43:46.725Z,15.70
2022-09-29T11:46:44.256Z,15.40
2022-09-29T11:50:00.884Z,15.20
2022-09-29T11:53:04.611Z,15.50
2022-09-29T11:55:59.430Z,15.50
2022-09-29T11:58:52.130Z,15.50
2022-09-29T12:01:37.144Z,15.90
2022-09-29T12:04:34.409Z,16.00
2022-09-29T12:07:15.195Z,16.10
2022-09-29T12:10:26.357Z,16.20
2022-09-29T12:13:04.928Z,16.10
2022-09-29T12:15:47.648Z,16.00
2022-09-29T12:18:24.073Z,16.10
2022-09-29T12:20:55.627Z,16.30
2022-09-29T12:23:28.429Z,16.30
2022-09-29T12:26:06.564Z,16.30
2022-09-29T12:28:45.214Z,16.20
2022-09-29T12:31:18.307Z,16.30
2022-09-29T12:33:52.807Z,16.40
2022-09-29T12:36:50.574Z,16.40
2022-09-29T12:39:43.329Z,16.10
2022-09-29T12:42:40.170Z,16.10
2022-09-29T12:45:17.772Z,16.20
2022-09-29T12:47:58.500Z,16.20
2022-09-29T12:50:33.040Z,16.10
2022-09-29T12:53:10.783Z,16.00
2022-09-29T12:55:48.030Z,16.20
2022-09-29T12:58:24.276Z,16.10
2022-09-29T13:01:04.836Z,16.00
2022-09-29T13:04:08.787Z,15.90
2022-09-29T13:07:34.304Z,15.90
2022-09-29T13:10:33.830Z,15.80
2022-09-29T13:13:37.437Z,15.60
2022-09-29T13:16:17.809Z,15.60
2022-09-29T13:19:26.050Z,15.50
2022-09-29T13:22:31.401Z,15.40
2022-09-29T13:25:11.262Z,15.30
2022-09-29T13:27:44.499Z,15.40
2022-09-29T13:30:17.707Z,15.50
2022-09-29T13:32:50.172Z,15.70
2022-09-29T13:35:24.662Z,15.50
2022-09-29T13:37:57.336Z,15.40
2022-09-29T13:40:28.158Z,15.40
2022-09-29T13:42:57.922Z,15.30
2022-09-29T13:45:44.995Z,15.30
2022-09-29T13:48:52.737Z,15.20
2022-09-29T13:51:47.954Z,15.20
2022-09-29T13:54:36.839Z,15.30
2022-09-29T13:57:29.070Z,15.20
2022-09-29T14:00:25.777Z,15.20
2022-09-29T14:03:24.389Z,15.20
2022-09-29T14:06:40.344Z,15.20
2022-09-29T14:09:08.833Z,15.20
2022-09-29T14:11:42.874Z,15.20
2022-09-29T14:14:18.511Z,15.10
2022-09-29T14:16:54.597Z,15.20
2022-09-29T14:19:38.014Z,15.10
2022-09-29T14:22:28.994Z,15.00
2022-09-29T14:25:53.430Z,15.10
2022-09-29T14:28:41.953Z,15.10
2022-09-29T14:31:24.264Z,15.20
2022-09-29T14:33:54.419Z,15.30
2022-09-29T14:36:26.060Z,15.30
2022-09-29T14:39:24.567Z,15.30
2022-09-29T14:41:49.181Z,15.30
2022-09-29T14:44:24.348Z,15.30
2022-09-29T14:47:37.525Z,15.30
2022-09-29T14:50:47.650Z,15.30
2022-09-29T14:53:35.661Z,15.20
2022-09-29T14:56:24.407Z,15.10
2022-09-29T14:59:10.950Z,15.00
2022-09-29T15:02:03.777Z,15.00
2022-09-29T15:04:32.631Z,14.90
2022-09-29T15:07:06.300Z,14.90
2022-09-29T15:09:38.524Z,14.90
2022-09-29T15:12:16.813Z,14.90
2022-09-29T15:14:46.461Z,14.80
2022-09-29T15:17:25.567Z,14.80
2022-09-29T15:20:03.059Z,14.80
2022-09-29T15:23:05.633Z,14.80
2022-09-29T15:25:37.436Z,14.70
2022-09-29T15:28:13.732Z,14.80
2022-09-29T15:30:44.554Z,14.70
2022-09-29T15:33:22.909Z,14.70
2022-09-29T15:35:55.970Z,14.70
2022-09-29T15:38:38.351Z,14.70
2022-09-29T15:41:26.303Z,14.60
2022-09-29T15:43:59.481Z,14.60
2022-09-29T15:46:39.262Z,14.50
2022-09-29T15:49:18.654Z,14.50
2022-09-29T15:51:59.021Z,14.50
2022-09-29T15:54:33.612Z,14.50
2022-09-29T15:57:19.967Z,14.40
2022-09-29T16:00:14.047Z,14.40
2022-09-29T16:02:44.724Z,14.30
2022-09-29T16:05:17.034Z,14.30
2022-09-29T16:07:53.705Z,14.20
2022-09-29T16:10:24.296Z,14.20
2022-09-29T16:12:57.944Z,14.10
2022-09-29T16:15:30.598Z,14.10
2022-09-29T16:18:03.118Z,14.10
2022-09-29T16:20:34.743Z,14.00
2022-09-29T16:23:08.720Z,14.00
2022-09-29T16:25:37.024Z,13.90
2022-09-29T16:28:07.372Z,13.80
2022-09-29T16:30:38.962Z,13.80
2022-09-29T16:33:17.608Z,13.80
2022-09-29T16:35:59.773Z,13.70
2022-09-29T16:38:35.668Z,13.60
2022-09-29T16:41:19.878Z,13.50
2022-09-29T16:43:50.023Z,13.40
2022-09-29T16:46:21.915Z,13.40
2022-09-29T16:48:52.319Z,13.30
2022-09-29T16:51:39.578Z,13.30
2022-09-29T16:54:17.615Z,13.20
2022-09-29T16:56:48.464Z,13.20
2022-09-29T16:59:20.103Z,13.00
2022-09-29T17:01:48.965Z,12.90
2022-09-29T17:04:18.664Z,12.90
2022-09-29T17:06:48.945Z,12.80
2022-09-29T17:09:22.134Z,12.80
2022-09-29T17:11:50.595Z,12.60
2022-09-29T17:14:21.627Z,12.50
2022-09-29T17:16:51.678Z,12.40
2022-09-29T17:19:22.480Z,12.30
2022-09-29T17:21:51.788Z,12.30
2022-09-29T17:24:20.095Z,12.30
2022-09-29T17:27:06.073Z,12.20
2022-09-29T17:29:36.012Z,12.10
2022-09-29T17:32:05.372Z,12.00
2022-09-29T17:34:35.816Z,11.90
2022-09-29T17:37:11.877Z,11.70
2022-09-29T17:39:40.140Z,11.60
2022-09-29T17:42:08.837Z,11.50
2022-09-29T17:44:40.784Z,11.40
2022-09-29T17:47:27.348Z,11.30
2022-09-29T17:49:58.497Z,11.30
2022-09-29T17:52:26.781Z,11.20
2022-09-29T17:54:55.106Z,11.20
2022-09-29T17:57:28.937Z,11.10
2022-09-29T17:59:58.208Z,11.10
2022-09-29T18:02:26.578Z,10.90
2022-09-29T18:04:54.893Z,10.90
2022-09-29T18:07:25.514Z,10.90
2022-09-29T18:09:53.838Z,10.80
2022-09-29T18:12:22.074Z,10.80
2022-09-29T18:14:50.420Z,10.60
2022-09-29T18:17:18.656Z,10.40
2022-09-29T18:19:47.059Z,10.40
2022-09-29T18:22:15.293Z,10.40
2022-09-29T18:24:44.947Z,10.40
2022-09-29T18:27:14.851Z,10.40
2022-09-29T18:29:43.250Z,10.30
2022-09-29T18:32:20.922Z,10.20
2022-09-29T18:34:49.199Z,10.20
2022-09-29T18:37:17.557Z,10.20
2022-09-29T18:39:47.192Z,10.00
2022-09-29T18:42:16.115Z,10.00
2022-09-29T18:44:44.539Z,9.90
2022-09-29T18:47:13.341Z,9.80
2022-09-29T18:49:41.590Z,9.80
2022-09-29T18:52:10.207Z,9.80
2022-09-29T18:54:38.451Z,9.70
2022-09-29T18:57:10.576Z,9.60
2022-09-29T18:59:38.834Z,9.60
2022-09-29T19:02:12.114Z,9.60
2022-09-29T19:04:40.473Z,9.60
2022-09-29T19:07:12.313Z,9.60
2022-09-29T19:09:40.723Z,9.50
2022-09-29T19:12:11.309Z,9.50
2022-09-29T19:14:41.803Z,9.40
2022-09-29T19:17:10.245Z,9.40
2022-09-29T19:19:38.467Z,9.40
2022-09-29T19:22:12.337Z,9.30
2022-09-29T19:24:40.651Z,9.30
2022-09-29T19:27:10.411Z,9.20
2022-09-29T19:29:38.650Z,9.20
2022-09-29T19:32:07.079Z,9.20
2022-09-29T19:34:35.840Z,9.20
2022-09-29T19:37:04.196Z,9.10
2022-09-29T19:39:32.895Z,9.00
2022-09-29T19:42:01.508Z,8.80
2022-09-29T19:44:32.018Z,8.80
2022-09-29T19:47:01.394Z,8.70
2022-09-29T19:49:30.046Z,8.70
2022-09-29T19:51:57.895Z,8.70
2022-09-29T19:54:30.067Z,8.70
2022-09-29T19:57:00.460Z,8.70
2022-09-29T19:59:33.291Z,8.60
2022-09-29T20:02:03.039Z,8.50
2022-09-29T20:04:35.612Z,8.40
2022-09-29T20:07:04.517Z,8.30
2022-09-29T20:09:33.618Z,8.30
2022-09-29T20:12:02.905Z,8.20
2022-09-29T20:14:37.960Z,8.20
2022-09-29T20:17:06.243Z,8.20
2022-09-29T20:19:34.649Z,8.20
2022-09-29T20:22:02.928Z,8.20
2022-09-29T20:24:31.241Z,8.20
2022-09-29T20:26:59.502Z,8.20
2022-09-29T20:29:29.339Z,8.20
2022-09-29T20:31:59.151Z,8.20
2022-09-29T20:34:27.429Z,8.10
2022-09-29T20:36:56.947Z,7.90
2022-09-29T20:39:26.194Z,7.90
2022-09-29T20:41:55.463Z,7.90
2022-09-29T20:44:25.685Z,7.80
2022-09-29T20:46:54.843Z,7.80
2022-09-29T20:49:25.197Z,7.80
2022-09-29T20:51:53.831Z,7.80
2022-09-29T20:54:22.929Z,7.80
2022-09-29T20:56:53.715Z,7.80
2022-09-29T20:59:24.421Z,7.80
2022-09-29T21:01:53.996Z,7.80
2022-09-29T21:04:24.432Z,7.90
2022-09-29T21:06:53.595Z,7.90
2022-09-29T21:09:24.512Z,7.80
2022-09-29T21:11:55.279Z,7.80
2022-09-29T21:14:27.900Z,7.70
2022-09-29T21:16:58.456Z,7.70
2022-09-29T21:19:28.548Z,7.70
2022-09-29T21:21:57.478Z,7.80
2022-09-29T21:24:25.749Z,7.80
2022-09-29T21:26:54.072Z,7.80
2022-09-29T21:29:22.667Z,7.70
2022-09-29T21:31:51.684Z,7.70
2022-09-29T21:34:20.157Z,7.60
2022-09-29T21:36:50.276Z,7.40
2022-09-29T21:39:18.794Z,7.30
2022-09-29T21:41:47.349Z,7.20
2022-09-29T21:44:18.411Z,7.20
2022-09-29T21:46:47.205Z,7.20
2022-09-29T21:49:18.118Z,7.30
2022-09-29T21:51:50.155Z,7.20
2022-09-29T21:54:20.997Z,7.20
2022-09-29T21:56:50.308Z,7.20
2022-09-29T21:59:20.965Z,7.20
2022-09-29T22:01:49.808Z,7.20
2022-09-29T22:04:18.384Z,7.30
2022-09-29T22:06:47.098Z,7.20
2022-09-29T22:09:20.714Z,7.20
2022-09-29T22:11:50.044Z,7.20
2022-09-29T22:14:19.088Z,7.20
2022-09-29T22:16:47.611Z,7.20
2022-09-29T22:19:23.301Z,7.10
2022-09-29T22:21:52.513Z,7.00
2022-09-29T22:24:23.966Z,6.90
2022-09-29T22:26:52.975Z,6.90
2022-09-29T22:29:21.492Z,6.90
2022-09-29T22:31:50.066Z,7.00
2022-09-29T22:34:18.443Z,7.00
2022-09-29T22:36:46.934Z,7.00
2022-09-29T22:39:15.272Z,6.90
2022-09-29T22:41:45.251Z,6.90
2022-09-29T22:44:13.523Z,6.90
2022-09-29T22:46:41.820Z,6.90
2022-09-29T22:49:10.375Z,6.80
2022-09-29T22:51:38.599Z,6.80
2022-09-29T22:54:07.007Z,6.80
2022-09-29T22:56:35.291Z,6.70
2022-09-29T22:59:05.883Z,6.70
2022-09-29T23:01:34.899Z,6.70
2022-09-29T23:04:04.183Z,6.60
2022-09-29T23:06:32.739Z,6.50
2022-09-29T23:09:01.105Z,6.50
2022-09-29T23:11:30.067Z,6.50
2022-09-29T23:14:00.351Z,6.40
2022-09-29T23:16:30.161Z,6.40
2022-09-29T23:18:59.641Z,6.50
2022-09-29T23:21:27.965Z,6.50
2022-09-29T23:23:59.584Z,6.50
2022-09-29T23:26:29.889Z,6.50
2022-09-29T23:28:58.648Z,6.30
2022-09-29T23:31:29.487Z,6.20
2022-09-29T23:34:00.367Z,6.20
2022-09-29T23:36:30.368Z,6.20
2022-09-29T23:39:10.340Z,6.20
2022-09-29T23:41:39.913Z,6.20
2022-09-29T23:44:08.312Z,6.10
2022-09-29T23:46:40.679Z,6.20
2022-09-29T23:49:11.168Z,6.20
2022-09-29T23:51:41.523Z,6.20
2022-09-29T23:54:11.849Z,6.20
2022-09-29T23:56:40.908Z,6.10
2022-09-29T23:59:09.261Z,6.00
